Terminal Aerodrome Forecast
Issued by NWS

Home | Current Version | Previous Version | Text Only | Print | Product List | Glossary On
Versions: 1 2 3 4 5 6 7 8 9 10 11 12 13 14 15 16 17 18 19 20
000
FTUS46 KPDT 232320
TAFDLS
TAF
KDLS 232320Z 2400/2424 09004KT P6SM SCT100 BKN120
     FM240300 VRB05KT P6SM BKN080 OVC100
     FM240700 VRB04KT P6SM -RA OVC060
     FM241800 32004KT P6SM VCSH SCT060 BKN100=

USA.gov is the U.S. government's official web portal to all federal, state and local government web resources and services.